Regional Weather

 

KMKL - Jackson, TN, USA
Distance from station: WNW 50mi, 81km
Updated: Mon, Jun-17-2019 7:53am CDT
Clear
Clear
 Wind from S
Wind: S 8 mph , 13 km/h
Temperature: 73°F , 23°C
Dew Point: 70°F , 21°C
Humidity: 89%
Barometer: 29.97 inHg , 1014.9 hPa
Clouds: Clear
Visibility: 10 miles , 16 km
2019/06/17 12:53 KMKL 171253Z 18007KT 10SM CLR 23/21 A2997 RMK AO2 SLP142 T02330211
KMEM - Memphis, TN, USA
Distance from station: W 108mi, 173km
Updated: Mon, Jun-17-2019 7:54am CDT
Mostly cloudy
Mostly cloudy
 Wind from SSW
Wind: SSW 9 mph , 15 km/h
Temperature: 73°F , 23°C
Dew Point: 68°F , 20°C
Humidity: 83%
Barometer: 29.95 inHg , 1014.2 hPa
Clouds: Mostly cloudy
Visibility: 10 miles , 16 km
Cloud details: Few Clouds 5500 ft
Partly cloudy 9000 ft
Partly cloudy 12000 ft
Mostly cloudy 18000 ft
Mostly cloudy 25000 ft
2019/06/17 12:54 KMEM 171254Z 20008KT 10SM FEW055 SCT090 SCT120 BKN180 BKN250 23/20 A2995 RMK AO2 SLP139 T02280200 $
 
KBNA - Nashville, TN, USA
Distance from station: NE 97mi, 157km
Updated: Mon, Jun-17-2019 7:53am CDT
Mostly cloudy
Mostly cloudy
 Wind from SSW
Wind: SSW 5 mph , 7 km/h
Temperature: 75°F , 24°C
Dew Point: 70°F , 21°C
Humidity: 83%
Barometer: 30.00 inHg , 1015.9 hPa
Clouds: Mostly cloudy
Visibility: 10 miles , 16 km
Cloud details: Partly cloudy 12000 ft
Mostly cloudy 16000 ft
Mostly cloudy 25000 ft
2019/06/17 12:53 KBNA 171253Z 20004KT 10SM SCT120 BKN160 BKN250 24/21 A3000 RMK AO2 SLP151 T02440206
KCKV - Clarksville, TN, USA
Distance from station: NNE 99mi, 159km
Updated: Mon, Jun-17-2019 7:52am CDT
Partly cloudy
Partly cloudy
 Wind from S
Wind: S 8 mph , 13 km/h
Temperature: 73°F , 23°C
Dew Point: 70°F , 21°C
Humidity: 89%
Barometer: 29.97 inHg , 1014.9 hPa
Clouds: Partly cloudy
Visibility: 10 miles , 16 km
Cloud details: Partly cloudy 12000 ft
2019/06/17 12:52 KCKV 171252Z AUTO 19007KT 10SM SCT120 23/21 A2997 RMK AO2 SLP143 T02330211
 
KPAH - Paducah, KY, USA
Distance from station: NNW 128mi, 205km
Updated: Mon, Jun-17-2019 7:53am CDT
Clear
Clear
 Wind from S
Wind: S 6 mph , 9 km/h
Temperature: 73°F , 23°C
Dew Point: 70°F , 21°C
Humidity: 89%
Barometer: 29.92 inHg , 1013.2 hPa
Clouds: Clear
Visibility: 10 miles , 16 km
2019/06/17 12:53 KPAH 171253Z 18005KT 10SM CLR 23/21 A2992 RMK AO2 SLP129 T02330211
KCHA - Chattanooga, TN, USA
Distance from station: E 165mi, 265km
Updated: Mon, Jun-17-2019 7:53am CDT
Mostly cloudy
Mostly cloudy
 Wind from SSE
Wind: SSE 5 mph , 7 km/h
Temperature: 79°F , 26°C
Dew Point: 70°F , 21°C
Humidity: 74%
Barometer: 30.04 inHg , 1017.3 hPa
Clouds: Mostly cloudy
Visibility: 10 miles , 16 km
Cloud details: Few Clouds 15000 ft
Partly cloudy 25000 ft
Mostly cloudy 30000 ft
2019/06/17 12:53 KCHA 171253Z 16004KT 10SM FEW150 SCT250 BKN300 26/21 A3004 RMK AO2 SLP164 T02560211
 
KTYS - Knoxville, TN, USA
Distance from station: E 234mi, 377km
Updated: Mon, Jun-17-2019 7:53am CDT
Overcast
Overcast
 Wind from SW
Wind: SW 6 mph , 9 km/h
Temperature: 75°F , 24°C
Dew Point: 66°F , 19°C
Humidity: 74%
Barometer: 30.05 inHg , 1017.6 hPa
Clouds: Overcast
Visibility: 10 miles , 16 km
Cloud details: Few Clouds 4700 ft
Mostly cloudy 6500 ft
Overcast 20000 ft
2019/06/17 12:53 KTYS 171253Z 23005KT 10SM FEW047 BKN065 OVC200 24/19 A3005 RMK AO2 SLP164 T02440194
KLIT - Little Rock, AR, USA
Distance from station: W 240mi, 386km
Updated: Mon, Jun-17-2019 7:53am CDT
Mostly cloudy
Mostly cloudy
 Wind from SW
Wind: SW 8 mph , 13 km/h
Temperature: 68°F , 20°C
Dew Point: 64°F , 18°C
Humidity: 88%
Barometer: 29.92 inHg , 1013.2 hPa
Clouds: Mostly cloudy
Visibility: 10 miles , 16 km
Cloud details: Mostly cloudy 1200 ft
Mostly cloudy 12000 ft
Mostly cloudy 25000 ft
2019/06/17 12:53 KLIT 171253Z 22007KT 10SM BKN012 BKN120 BKN250 20/18 A2992 RMK AO2 SLP132 BKN012 V SCT T02000183

Refresh Page for latest data.